Marne, Ohio
Current Conditions -  °F | °C
As of 9:13 PM on Sunday 25 Jan 2015 (Local Time) from KVTA Reporting Station
Light Snow Light Snow  
Wind Chill: 28°   Ceiling: 600
Heat Index: 33°   Visibility: 1.2mi
Dew Point: 31°   Wind: 6mph
Humidity: 92%   Direction: 20°NNE
Pressure: 29.76"   Gusts: NA
Location:  40.1181°N, 82.3726°W
Report Text: KVTA 260213Z AUTO 02005KT 1 1/4SM -SN BR BKN006 OVC010 01/M01 A2976 RMK AO2 CIG 003V008 P0001 T00061006
Loading
Personal Weather Stations






























Interactive Weather Map New forecast layout! Learn more

10-Day Weather Forecast

Advertisements
Track Severe Weather on mobile